Time;durP1;ratioP1;P1;durP2;ratioP2;P2;SDS_P1;SDS_P2;PMS_P1;PMS_P2;Temp;Humidity;BMP_temperature;BMP_pressure;BME280_temperature;BME280_humidity;BME280_pressure;Samples;Min_cycle;Max_cycle;Signal;HPM_P1;HPM_P2
2021/10/02 00:44:53;;;;;;;;;35.33;34.33;17.40;43.70;;;;;;5115621;28;8733;-67
2021/10/02 00:47:21;;;;;;;;;31.67;31.67;17.40;43.90;;;;;;5115560;28;8788;-67
2021/10/02 00:49:48;;;;;;;;;36.67;35.00;17.50;43.60;;;;;;5115286;28;8849;-67
2021/10/02 00:52:16;;;;;;;;;36.33;35.33;17.40;43.40;;;;;;5115516;28;8872;-67
2021/10/02 00:54:43;;;;;;;;;31.33;31.33;17.20;43.70;;;;;;5115587;28;8782;-67
2021/10/02 00:57:09;;;;;;;;;36.00;35.00;17.30;43.90;;;;;;5115669;28;8757;-66
2021/10/02 00:59:36;;;;;;;;;35.67;34.67;17.50;43.90;;;;;;5115509;28;9582;-66
2021/10/02 01:02:17;;;;;;;;;42.00;37.00;17.60;43.50;;;;;;5114898;28;9317;-66
2021/10/02 01:05:31;;;;;;;;;33.00;33.00;17.30;43.30;;;;;;5115476;28;8760;-65
2021/10/02 01:08:03;;;;;;;;;37.67;36.00;17.20;43.70;;;;;;5115131;28;8757;-68
2021/10/02 01:10:45;;;;;;;;;35.00;34.33;17.20;43.90;;;;;;5115137;28;8877;-66
2021/10/02 01:13:30;;;;;;;;;36.33;35.33;17.30;43.90;;;;;;5115328;28;9441;-67
2021/10/02 01:16:16;;;;;;;;;40.67;36.33;17.40;44.00;;;;;;5115091;28;8737;-66
2021/10/02 01:18:56;;;;;;;;;33.00;31.67;17.50;44.00;;;;;;5100928;28;8764;-66
2021/10/02 01:22:10;;;;;;;;;30.33;30.33;17.50;43.70;;;;;;5115005;28;8956;-66
2021/10/02 01:25:03;;;;;;;;;33.00;33.00;17.50;43.80;;;;;;5107517;28;8768;-67
2021/10/02 01:27:52;;;;;;;;;36.00;33.67;17.50;43.80;;;;;;5115155;28;8768;-67
2021/10/02 01:31:17;;;;;;;;;35.33;33.67;17.50;43.70;;;;;;5115144;28;8808;-67
2021/10/02 01:36:08;;;;;;;;;28.00;28.00;17.50;43.60;;;;;;5114891;28;8757;-66
2021/10/02 01:49:57;;;;;;;;;28.67;28.67;17.10;45.00;;;;;;5114746;28;8772;-66
2021/10/02 01:52:32;;;;;;;;;24.00;24.00;16.90;45.50;;;;;;5114713;28;8756;-67
2021/10/02 01:55:00;;;;;;;;;29.33;29.33;16.80;46.10;;;;;;5114905;28;9469;-65
2021/10/02 01:57:28;;;;;;;;;32.00;32.00;16.90;46.10;;;;;;5114713;28;8760;-66
2021/10/02 01:59:56;;;;;;;;;31.00;31.00;17.00;46.20;;;;;;5114510;28;8783;-66
2021/10/02 02:02:27;;;;;;;;;15.67;15.67;17.00;45.90;;;;;;5114547;28;8960;-66
2021/10/02 02:04:55;;;;;;;;;29.00;29.00;17.00;45.80;;;;;;5114813;28;9477;-66
2021/10/02 02:07:23;;;;;;;;;31.33;31.33;16.90;46.00;;;;;;5114497;28;8894;-66
2021/10/02 02:09:52;;;;;;;;;29.00;29.00;17.00;46.30;;;;;;5114339;28;8812;-66
2021/10/02 02:12:19;;;;;;;;;29.33;29.33;17.00;46.10;;;;;;5114657;28;8852;-66
2021/10/02 02:14:47;;;;;;;;;30.00;30.00;17.00;46.10;;;;;;5116870;28;9441;-66
2021/10/02 02:17:16;;;;;;;;;34.67;34.00;16.80;46.20;;;;;;5100989;28;8804;-66
2021/10/02 02:19:44;;;;;;;;;36.33;34.67;16.90;46.50;;;;;;5118555;28;8752;-66
2021/10/02 02:22:10;;;;;;;;;43.33;40.33;16.90;46.30;;;;;;5118262;28;8794;-66
2021/10/02 02:24:36;;;;;;;;;46.67;40.67;16.80;46.30;;;;;;5116571;27;8899;-65
2021/10/02 02:27:03;;;;;;;;;47.50;42.00;16.90;46.50;;;;;;5117867;28;8932;-66
2021/10/02 02:29:33;;;;;;;;;40.25;37.25;16.90;46.30;;;;;;5118144;28;8903;-66
2021/10/02 02:32:00;;;;;;;;;39.67;36.67;16.90;46.20;;;;;;5118465;28;8758;-67
2021/10/02 02:34:28;;;;;;;;;44.33;39.00;16.90;46.10;;;;;;5118431;28;8906;-66
2021/10/02 02:36:55;;;;;;;;;45.75;40.50;17.00;46.10;;;;;;5118246;28;8764;-66
2021/10/02 02:39:21;;;;;;;;;47.75;42.00;16.90;45.90;;;;;;5117812;28;8866;-67
2021/10/02 02:41:47;;;;;;;;;47.00;42.00;16.80;46.00;;;;;;5118148;28;9642;-66
2021/10/02 02:44:13;;;;;;;;;45.50;40.00;16.60;46.40;;;;;;5117821;28;8796;-66
2021/10/02 02:46:40;;;;;;;;;40.67;36.33;16.50;46.80;;;;;;5117815;28;8778;-66
2021/10/02 02:49:23;;;;;;;;;38.00;37.00;16.50;46.90;;;;;;5117682;28;8776;-65
2021/10/02 02:52:16;;;;;;;;;33.00;33.00;16.40;47.10;;;;;;5117875;28;8776;-65
2021/10/02 02:54:45;;;;;;;;;39.00;36.33;16.40;47.30;;;;;;5117970;28;8770;-67
2021/10/02 02:57:16;;;;;;;;;34.00;33.00;16.40;47.30;;;;;;5117929;28;8745;-66
2021/10/02 02:59:53;;;;;;;;;38.67;36.00;16.50;47.20;;;;;;5117670;28;8765;-66
2021/10/02 03:02:21;;;;;;;;;34.00;33.00;16.40;47.00;;;;;;5117470;28;8788;-66
2021/10/02 03:04:49;;;;;;;;;30.00;30.00;16.50;47.10;;;;;;5117764;28;8773;-66
2021/10/02 03:07:20;;;;;;;;;32.67;32.67;16.60;47.10;;;;;;5117435;28;8852;-67
2021/10/02 03:09:51;;;;;;;;;30.00;30.00;16.60;46.80;;;;;;5117661;28;8793;-66
2021/10/02 03:12:20;;;;;;;;;29.00;29.00;16.70;46.70;;;;;;5117409;28;8765;-66
2021/10/02 03:14:49;;;;;;;;;30.00;30.00;16.70;46.40;;;;;;5117342;28;8757;-66
2021/10/02 03:17:17;;;;;;;;;33.33;33.00;16.60;46.50;;;;;;5117359;28;8761;-66
2021/10/02 03:19:45;;;;;;;;;24.33;22.33;16.70;46.80;;;;;;5117107;28;8942;-66
2021/10/02 03:22:12;;;;;;;;;30.00;30.00;16.70;46.40;;;;;;5099086;28;8860;-66
2021/10/02 03:24:39;;;;;;;;;29.00;29.00;16.70;46.30;;;;;;5116819;28;8778;-66
2021/10/02 03:27:08;;;;;;;;;25.33;25.33;16.80;46.20;;;;;;5117048;28;8762;-66
2021/10/02 03:29:36;;;;;;;;;27.33;27.33;16.80;46.20;;;;;;5116979;28;8790;-67
2021/10/02 03:32:07;;;;;;;;;34.00;33.00;16.80;45.90;;;;;;5117090;28;8845;-67
2021/10/02 03:34:34;;;;;;;;;28.00;28.00;16.80;45.90;;;;;;5117308;28;8797;-67
2021/10/02 03:37:00;;;;;;;;;27.00;27.00;16.80;45.60;;;;;;5116787;28;8864;-67
2021/10/02 03:39:26;;;;;;;;;30.00;30.00;16.70;45.90;;;;;;5116731;28;8786;-67
2021/10/02 03:42:15;;;;;;;;;25.00;25.00;16.60;45.90;;;;;;5117010;28;9439;-67
2021/10/02 03:44:43;;;;;;;;;28.33;28.33;16.70;46.00;;;;;;5116743;28;8757;-67
2021/10/02 03:47:11;;;;;;;;;33.00;31.67;16.80;45.90;;;;;;5116955;28;9435;-67
2021/10/02 03:49:37;;;;;;;;;27.67;27.67;16.70;45.80;;;;;;5116772;28;8894;-67
2021/10/02 03:52:04;;;;;;;;;29.00;29.00;16.80;45.70;;;;;;5116599;28;8781;-67
2021/10/02 03:54:30;;;;;;;;;28.00;28.00;16.80;45.50;;;;;;5116510;28;8800;-67
2021/10/02 03:56:56;;;;;;;;;29.00;29.00;16.70;45.50;;;;;;5116723;28;8762;-66
2021/10/02 03:59:22;;;;;;;;;29.00;29.00;16.70;45.70;;;;;;5116398;28;8924;-66
2021/10/02 04:01:48;;;;;;;;;29.67;29.67;16.70;45.60;;;;;;5116411;28;8762;-66
2021/10/02 04:04:14;;;;;;;;;25.33;25.33;16.60;45.70;;;;;;5116729;28;8870;-66
2021/10/02 04:06:40;;;;;;;;;31.67;31.67;16.50;45.70;;;;;;5098336;28;8809;-66
2021/10/02 04:09:05;;;;;;;;;25.00;25.00;16.50;45.70;;;;;;5116094;28;8785;-66
2021/10/02 04:11:32;;;;;;;;;32.33;31.33;16.40;45.90;;;;;;5116503;28;8764;-66
2021/10/02 04:13:59;;;;;;;;;31.67;30.67;16.40;45.80;;;;;;5116165;28;8872;-66
2021/10/02 04:16:25;;;;;;;;;31.67;31.67;16.50;45.90;;;;;;5116276;28;8750;-66
2021/10/02 04:18:51;;;;;;;;;36.00;34.67;16.50;45.80;;;;;;5116038;28;8777;-66
2021/10/02 04:21:17;;;;;;;;;32.00;32.00;16.50;45.50;;;;;;5115993;28;8769;-66
2021/10/02 04:23:43;;;;;;;;;33.33;33.33;16.50;45.30;;;;;;5116003;28;8773;-66
2021/10/02 04:26:09;;;;;;;;;32.33;32.33;16.60;45.30;;;;;;5116202;28;8754;-66
2021/10/02 04:28:34;;;;;;;;;38.00;37.00;16.50;45.00;;;;;;5115878;28;8745;-66
2021/10/02 04:31:03;;;;;;;;;36.00;35.00;16.50;45.10;;;;;;5115669;28;8797;-66
2021/10/02 04:33:32;;;;;;;;;35.25;34.50;16.40;45.20;;;;;;5116041;28;8777;-67
2021/10/02 04:35:58;;;;;;;;;41.33;38.33;16.40;45.00;;;;;;5113738;28;8762;-66
2021/10/02 04:38:25;;;;;;;;;35.67;34.33;16.40;45.20;;;;;;5096807;28;8896;-66
2021/10/02 04:40:54;;;;;;;;;34.00;33.00;16.40;45.30;;;;;;5115290;28;8797;-66
2021/10/02 04:43:22;;;;;;;;;35.00;33.00;16.40;45.10;;;;;;5115625;28;8805;-66
2021/10/02 04:45:48;;;;;;;;;38.67;37.00;16.40;45.30;;;;;;5115821;28;9696;-65
2021/10/02 04:48:14;;;;;;;;;32.33;32.33;16.50;45.20;;;;;;5115716;28;9442;-66
2021/10/02 04:50:40;;;;;;;;;35.75;34.75;16.40;45.00;;;;;;5115268;28;8824;-67
2021/10/02 04:53:05;;;;;;;;;37.00;35.33;16.40;44.90;;;;;;5115515;28;8746;-66
2021/10/02 04:55:31;;;;;;;;;32.00;32.00;16.50;45.90;;;;;;5115384;28;8789;-67
2021/10/02 04:57:57;;;;;;;;;51.00;43.75;16.50;44.90;;;;;;5115610;28;8762;-67
2021/10/02 05:00:23;;;;;;;;;53.00;45.50;16.40;44.60;;;;;;5115326;28;8782;-67
2021/10/02 05:02:49;;;;;;;;;53.50;45.75;16.20;44.70;;;;;;5115226;28;8809;-67
2021/10/02 05:05:15;;;;;;;;;50.25;42.00;16.10;45.10;;;;;;5115504;28;8762;-67
2021/10/02 05:07:41;;;;;;;;;51.25;44.25;16.30;45.50;;;;;;5115352;28;8784;-67
2021/10/02 05:10:08;;;;;;;;;49.50;42.50;16.30;45.10;;;;;;5115041;28;8818;-67
2021/10/02 05:12:34;;;;;;;;;44.50;39.50;16.40;45.00;;;;;;5115667;28;8781;-66
2021/10/02 05:15:00;;;;;;;;;41.25;38.00;16.40;44.90;;;;;;5115378;28;8807;-67
2021/10/02 05:17:26;;;;;;;;;37.75;36.25;16.50;45.00;;;;;;5115094;28;8773;-67
2021/10/02 05:19:53;;;;;;;;;36.25;34.75;16.50;44.90;;;;;;5115291;28;8754;-67
2021/10/02 05:22:19;;;;;;;;;36.75;35.00;16.50;44.80;;;;;;5114933;28;8757;-67
2021/10/02 05:24:45;;;;;;;;;34.67;34.67;16.60;44.90;;;;;;5115169;28;8819;-66
2021/10/02 05:27:11;;;;;;;;;37.33;36.00;16.70;44.60;;;;;;5115247;28;8834;-66
2021/10/02 05:29:41;;;;;;;;;34.33;33.67;16.60;44.30;;;;;;5115182;28;8797;-67
2021/10/02 05:32:08;;;;;;;;;34.00;34.00;16.70;44.40;;;;;;5130787;27;9457;-67
2021/10/02 05:34:34;;;;;;;;;33.00;32.00;16.70;44.30;;;;;;5096957;28;8801;-66
2021/10/02 05:37:01;;;;;;;;;36.33;35.33;16.70;44.10;;;;;;5115089;28;8846;-66
2021/10/02 05:39:26;;;;;;;;;35.67;33.67;16.70;44.20;;;;;;5114838;28;8816;-66
2021/10/02 05:41:54;;;;;;;;;33.33;33.00;16.70;44.10;;;;;;5114798;28;8862;-66
2021/10/02 05:44:20;;;;;;;;;34.33;33.33;16.70;44.20;;;;;;5114935;28;8875;-66
2021/10/02 05:46:46;;;;;;;;;38.67;36.00;16.70;44.10;;;;;;5114728;28;8762;-66
2021/10/02 05:49:12;;;;;;;;;35.00;34.00;16.70;44.10;;;;;;5117870;28;8789;-66
2021/10/02 05:51:38;;;;;;;;;34.33;33.67;16.70;43.90;;;;;;5119194;28;8852;-66
2021/10/02 05:54:04;;;;;;;;;33.67;33.67;16.70;43.90;;;;;;5118881;28;9371;-68
2021/10/02 05:56:29;;;;;;;;;36.33;35.33;16.70;44.00;;;;;;5118894;28;8753;-66
2021/10/02 05:58:55;;;;;;;;;38.50;37.00;16.80;44.00;;;;;;5118616;28;8791;-66
2021/10/02 06:01:21;;;;;;;;;33.33;32.33;16.70;43.60;;;;;;5118694;28;8782;-66
2021/10/02 06:03:47;;;;;;;;;38.33;36.33;16.70;43.90;;;;;;5119093;28;8810;-66
2021/10/02 06:06:14;;;;;;;;;42.00;38.00;16.90;44.20;;;;;;5118672;28;8917;-66
2021/10/02 06:08:39;;;;;;;;;34.67;33.33;16.90;43.60;;;;;;5118661;28;8842;-67
2021/10/02 06:11:05;;;;;;;;;31.33;31.33;16.80;43.80;;;;;;5118531;28;8790;-66
2021/10/02 06:13:33;;;;;;;;;34.67;32.33;16.60;44.10;;;;;;5118603;28;8784;-67
2021/10/02 06:16:02;;;;;;;;;33.00;33.00;16.80;44.30;;;;;;5118689;28;8885;-67
2021/10/02 06:18:28;;;;;;;;;36.33;34.00;16.90;43.90;;;;;;5118178;28;8774;-67
2021/10/02 06:20:54;;;;;;;;;28.33;28.33;16.80;44.00;;;;;;5099082;28;8852;-66
2021/10/02 06:23:22;;;;;;;;;38.00;36.00;16.90;44.40;;;;;;5118309;28;9453;-66
2021/10/02 06:25:48;;;;;;;;;31.33;31.33;17.00;44.20;;;;;;5118273;28;8803;-67
2021/10/02 06:28:15;;;;;;;;;32.67;32.00;17.30;44.20;;;;;;5117782;28;8800;-66
2021/10/02 06:30:41;;;;;;;;;33.33;33.00;17.40;43.60;;;;;;5118219;28;8789;-66
2021/10/02 06:33:06;;;;;;;;;29.00;29.00;17.60;43.30;;;;;;5118238;28;8782;-66
2021/10/02 06:35:32;;;;;;;;;28.00;28.00;17.60;43.10;;;;;;5117945;28;8819;-62
2021/10/02 06:37:58;;;;;;;;;28.00;28.00;17.60;42.80;;;;;;5118013;28;8775;-64
2021/10/02 06:40:25;;;;;;;;;29.00;29.00;17.60;43.00;;;;;;5117837;28;8843;-64
2021/10/02 06:42:52;;;;;;;;;30.33;29.67;17.70;42.90;;;;;;5117650;28;8800;-63
2021/10/02 06:45:18;;;;;;;;;27.00;27.00;17.80;42.70;;;;;;5117933;28;8772;-63
2021/10/02 06:47:44;;;;;;;;;24.00;24.00;17.70;42.20;;;;;;5118141;28;8798;-64
2021/10/02 06:50:10;;;;;;;;;24.67;24.67;17.80;42.40;;;;;;5117643;28;9425;-63
2021/10/02 06:52:36;;;;;;;;;25.00;25.00;17.80;41.70;;;;;;5117765;28;8888;-64
2021/10/02 06:55:05;;;;;;;;;23.00;23.00;18.00;41.40;;;;;;5117675;28;8792;-64
2021/10/02 06:57:30;;;;;;;;;23.00;23.00;17.60;40.90;;;;;;5117905;28;8752;-64
2021/10/02 06:59:56;;;;;;;;;23.67;23.67;17.00;41.50;;;;;;5116872;28;9486;-64
2021/10/02 07:02:22;;;;;;;;;22.67;22.00;17.30;42.40;;;;;;5117747;28;8789;-64
2021/10/02 07:04:49;;;;;;;;;23.00;23.00;17.30;41.90;;;;;;5117312;28;8822;-64
2021/10/02 07:07:15;;;;;;;;;21.00;21.00;17.40;42.10;;;;;;5099239;28;8864;-64
2021/10/02 07:09:41;;;;;;;;;23.33;23.33;17.60;41.70;;;;;;5116802;28;9540;-64
2021/10/02 07:12:07;;;;;;;;;26.67;26.67;17.70;41.30;;;;;;5115957;28;8778;-61
2021/10/02 07:14:33;;;;;;;;;26.00;26.00;17.90;41.10;;;;;;5116769;28;8806;-65
2021/10/02 07:16:59;;;;;;;;;20.00;19.00;17.90;40.80;;;;;;5117246;28;8820;-64
2021/10/02 07:19:25;;;;;;;;;22.00;22.00;18.00;41.00;;;;;;5116692;28;8892;-65
2021/10/02 07:21:50;;;;;;;;;21.67;21.67;17.80;40.80;;;;;;5116758;28;8831;-65
2021/10/02 07:24:16;;;;;;;;;24.33;24.00;17.90;40.60;;;;;;5117510;28;8770;-64
2021/10/02 07:26:44;;;;;;;;;19.00;19.00;18.30;40.50;;;;;;5117356;28;9478;-65
2021/10/02 07:29:11;;;;;;;;;22.67;22.67;18.30;39.70;;;;;;5116845;28;8757;-64
2021/10/02 07:31:37;;;;;;;;;22.33;22.33;18.60;39.80;;;;;;5116754;28;8940;-65
2021/10/02 07:34:04;;;;;;;;;26.00;26.00;18.40;39.50;;;;;;5116966;28;8832;-65
2021/10/02 07:36:30;;;;;;;;;25.33;25.33;18.30;39.30;;;;;;5116680;28;8781;-65
2021/10/02 07:38:56;;;;;;;;;22.00;21.33;18.30;39.30;;;;;;5116612;28;8812;-64
2021/10/02 07:41:24;;;;;;;;;21.00;21.00;18.10;39.30;;;;;;5116879;28;8788;-64
2021/10/02 07:44:02;;;;;;;;;21.67;21.67;18.40;39.90;;;;;;5116025;28;9495;-64
2021/10/02 07:46:31;;;;;;;;;17.00;17.00;18.60;39.30;;;;;;5111770;28;8790;-64
2021/10/02 07:48:57;;;;;;;;;23.00;23.00;18.90;39.20;;;;;;5112210;28;8762;-65
2021/10/02 07:51:25;;;;;;;;;22.33;21.33;18.90;37.90;;;;;;5112533;28;8797;-63
2021/10/02 07:53:53;;;;;;;;;22.00;22.00;19.10;37.80;;;;;;5116377;28;8870;-65
2021/10/02 07:56:20;;;;;;;;;21.00;20.00;19.20;37.80;;;;;;5114679;28;8755;-65
2021/10/02 07:58:48;;;;;;;;;20.33;20.33;18.80;37.70;;;;;;5115948;28;8773;-66
2021/10/02 08:01:15;;;;;;;;;20.33;20.33;18.90;38.20;;;;;;5116523;28;8797;-70
2021/10/02 08:03:41;;;;;;;;;25.00;25.00;18.90;38.20;;;;;;5115631;28;8813;-69
2021/10/02 08:06:08;;;;;;;;;19.33;19.33;19.20;38.60;;;;;;5116073;28;8750;-69
2021/10/02 08:08:34;;;;;;;;;18.67;18.67;19.10;37.80;;;;;;5115606;28;8763;-69
2021/10/02 08:11:03;;;;;;;;;17.00;17.00;19.30;37.90;;;;;;5115445;28;8821;-68
2021/10/02 08:13:29;;;;;;;;;21.67;20.67;19.20;37.00;;;;;;5115917;28;8940;-69
2021/10/02 08:16:00;;;;;;;;;24.00;24.00;19.10;37.40;;;;;;5115831;28;8781;-66
2021/10/02 08:18:30;;;;;;;;;18.00;18.00;18.90;37.20;;;;;;5114660;28;8826;-65
2021/10/02 08:20:58;;;;;;;;;22.00;22.00;19.20;38.00;;;;;;5114477;28;8761;-65
2021/10/02 08:23:24;;;;;;;;;20.00;20.00;19.50;37.50;;;;;;5116078;28;8778;-65
2021/10/02 08:25:53;;;;;;;;;25.00;25.00;19.60;36.70;;;;;;5115687;28;8788;-65
2021/10/02 08:28:20;;;;;;;;;24.00;24.00;19.90;36.50;;;;;;5115986;28;8804;-67
2021/10/02 08:30:47;;;;;;;;;21.00;21.00;20.00;36.20;;;;;;5115449;28;8785;-65
2021/10/02 08:33:13;;;;;;;;;22.00;22.00;19.90;35.70;;;;;;5115738;28;8810;-66
2021/10/02 08:35:42;;;;;;;;;21.33;21.33;19.80;35.40;;;;;;5097345;28;8785;-66
2021/10/02 08:38:08;;;;;;;;;23.00;23.00;19.70;35.60;;;;;;5115571;28;8786;-65
2021/10/02 08:40:34;;;;;;;;;19.33;19.33;19.80;36.00;;;;;;5115301;28;8824;-65
2021/10/02 08:43:01;;;;;;;;;21.67;21.67;19.60;36.00;;;;;;5115454;28;8770;-63
2021/10/02 08:45:29;;;;;;;;;22.33;22.33;19.80;35.90;;;;;;5097296;28;8758;-64
2021/10/02 08:47:57;;;;;;;;;27.00;25.67;19.90;35.50;;;;;;5115485;28;8769;-64
2021/10/02 08:50:24;;;;;;;;;20.00;20.00;20.40;36.20;;;;;;5115231;28;8813;-66
2021/10/02 08:52:53;;;;;;;;;20.00;20.00;20.40;34.90;;;;;;5115402;28;8785;-66
2021/10/02 08:55:21;;;;;;;;;21.00;21.00;20.70;34.60;;;;;;5115254;28;8792;-70
2021/10/02 08:57:49;;;;;;;;;21.00;21.00;20.70;34.10;;;;;;5115210;28;8777;-69
2021/10/02 09:00:17;;;;;;;;;16.67;16.67;20.60;34.30;;;;;;5115165;28;8884;-69
2021/10/02 09:02:45;;;;;;;;;24.00;24.00;20.50;34.30;;;;;;5094874;28;9457;-75
2021/10/02 09:05:12;;;;;;;;;22.67;22.00;20.70;34.90;;;;;;5094665;28;8764;-68
2021/10/02 09:07:38;;;;;;;;;20.33;20.33;20.70;34.00;;;;;;5094759;28;8764;-69
2021/10/02 09:10:10;;;;;;;;;17.33;17.00;20.70;34.20;;;;;;5109434;28;9512;-67
2021/10/02 09:12:38;;;;;;;;;24.00;24.00;21.00;34.10;;;;;;5115036;28;8824;-68
2021/10/02 09:15:05;;;;;;;;;18.67;18.67;20.80;33.70;;;;;;5114699;28;8773;-72
2021/10/02 09:17:32;;;;;;;;;22.33;22.33;21.20;34.30;;;;;;5114998;28;8876;-73
2021/10/02 09:19:58;;;;;;;;;15.67;15.67;21.30;33.40;;;;;;5096796;28;9397;-75
2021/10/02 09:22:26;;;;;;;;;20.67;20.67;21.40;33.40;;;;;;5114644;28;8774;-69
2021/10/02 09:24:53;;;;;;;;;22.67;22.67;21.50;33.20;;;;;;5115139;28;9467;-72
2021/10/02 09:27:21;;;;;;;;;19.00;19.00;21.30;33.30;;;;;;5114864;28;8796;-69
2021/10/02 09:29:54;;;;;;;;;21.33;21.33;21.60;33.00;;;;;;5114720;28;8889;-68
2021/10/02 09:32:22;;;;;;;;;23.00;23.00;21.50;32.30;;;;;;5114269;28;8766;-72
2021/10/02 09:34:53;;;;;;;;;25.00;24.33;21.70;32.50;;;;;;5096648;28;8932;-71
2021/10/02 09:37:28;;;;;;;;;20.33;20.33;21.90;32.80;;;;;;5114819;28;8773;-69
2021/10/02 09:40:06;;;;;;;;;23.33;23.33;22.00;32.60;;;;;;5114660;28;8809;-69
2021/10/02 09:42:38;;;;;;;;;16.33;16.33;22.10;31.80;;;;;;5114434;28;8821;-66
2021/10/02 09:45:08;;;;;;;;;19.67;19.67;22.10;31.70;;;;;;5113948;28;8755;-70
2021/10/02 09:47:35;;;;;;;;;21.00;21.00;22.20;31.40;;;;;;5114676;28;8786;-65
2021/10/02 09:50:07;;;;;;;;;12.67;12.67;22.20;31.50;;;;;;5114508;28;8897;-71
2021/10/02 09:52:43;;;;;;;;;24.00;23.33;22.00;31.30;;;;;;5114381;28;8797;-70
2021/10/02 09:55:19;;;;;;;;;19.33;19.33;22.40;31.10;;;;;;5114719;28;9411;-70
2021/10/02 09:57:48;;;;;;;;;17.00;17.00;22.60;31.20;;;;;;5108349;28;11571;-68
2021/10/02 10:00:17;;;;;;;;;18.00;18.00;22.40;30.10;;;;;;5093832;28;11427;-70
2021/10/02 10:02:43;;;;;;;;;15.33;15.33;22.40;30.40;;;;;;5093555;28;11476;-69
2021/10/02 10:05:12;;;;;;;;;18.67;18.67;22.50;30.50;;;;;;5093496;28;11556;-69
2021/10/02 10:07:39;;;;;;;;;17.67;17.67;22.80;30.70;;;;;;5093727;28;8780;-71
2021/10/02 10:10:13;;;;;;;;;17.67;17.67;23.20;29.40;;;;;;5093717;28;11462;-71
2021/10/02 10:12:42;;;;;;;;;15.00;15.00;23.40;29.20;;;;;;5113408;28;11446;-71
2021/10/02 10:15:31;;;;;;;;;16.33;16.00;22.90;28.90;;;;;;5114135;28;12093;-65
2021/10/02 10:17:57;;;;;;;;;17.33;17.33;23.20;29.10;;;;;;5114066;28;11440;-69
2021/10/02 10:20:37;;;;;;;;;14.33;14.33;23.60;28.60;;;;;;5113927;28;11545;-71
2021/10/02 10:23:04;;;;;;;;;16.67;16.67;23.60;28.10;;;;;;5112485;28;11539;-71
2021/10/02 10:25:30;;;;;;;;;19.00;19.00;24.00;27.90;;;;;;5114041;28;12086;-68
2021/10/02 10:28:07;;;;;;;;;13.00;13.00;24.70;28.00;;;;;;5114341;28;11419;-66
2021/10/02 10:30:36;;;;;;;;;17.33;17.33;25.00;26.60;;;;;;5114148;28;12181;-72
2021/10/02 10:33:08;;;;;;;;;16.33;14.33;24.80;26.80;;;;;;5114049;28;11516;-66
2021/10/02 10:35:41;;;;;;;;;16.67;16.67;25.00;26.10;;;;;;5116115;28;11418;-69
2021/10/02 10:38:11;;;;;;;;;30.33;30.33;25.50;26.20;;;;;;5097437;28;12223;-70
2021/10/02 10:40:37;;;;;;;;;17.67;17.67;25.70;26.70;;;;;;5097081;28;8831;-68
2021/10/02 10:43:04;;;;;;;;;17.00;17.00;25.80;25.40;;;;;;5097338;28;12147;-69
2021/10/02 10:45:30;;;;;;;;;15.67;15.67;25.80;25.70;;;;;;5107338;28;11408;-70
2021/10/02 10:47:56;;;;;;;;;16.00;16.00;25.90;26.10;;;;;;5117785;28;11377;-69
2021/10/02 10:50:25;;;;;;;;;18.50;18.50;25.90;25.50;;;;;;5117382;28;11590;-69
2021/10/02 10:52:52;;;;;;;;;14.00;14.00;26.30;25.20;;;;;;5116621;28;11465;-67
2021/10/02 10:55:21;;;;;;;;;17.25;17.25;26.10;25.20;;;;;;5115056;28;12287;-68
2021/10/02 10:57:59;;;;;;;;;17.25;17.25;26.30;25.10;;;;;;5116329;28;12025;-70
2021/10/02 11:00:30;;;;;;;;;17.25;17.25;26.40;24.90;;;;;;5117346;28;12244;-68
2021/10/02 11:03:03;;;;;;;;;18.50;18.50;26.40;24.60;;;;;;5115414;28;12106;-71
2021/10/02 11:05:35;;;;;;;;;14.25;14.25;27.00;24.80;;;;;;5114652;28;11430;-66
2021/10/02 11:08:09;;;;;;;;;16.50;16.50;27.90;23.80;;;;;;5117478;28;12122;-78
2021/10/02 11:10:41;;;;;;;;;15.25;15.25;28.00;23.10;;;;;;5117152;28;11475;-68
2021/10/02 11:13:11;;;;;;;;;17.25;17.25;30.20;21.60;;;;;;5117213;28;11492;-68
2021/10/02 11:15:37;;;;;;;;;17.00;17.00;35.40;18.20;;;;;;5096888;28;11427;-66
2021/10/02 11:18:03;;;;;;;;;17.25;17.25;38.50;16.00;;;;;;5096780;28;11461;-67
2021/10/02 11:20:32;;;;;;;;;22.75;22.75;40.50;15.30;;;;;;5106251;27;8768;-70
2021/10/02 11:23:23;;;;;;;;;49.67;42.67;41.60;14.20;;;;;;5106230;28;11448;-70
2021/10/02 11:26:24;;;;;;;;;34.67;31.67;43.60;13.50;;;;;;5116900;28;8749;-70
2021/10/02 11:29:12;;;;;;;;;22.00;22.00;44.70;12.90;;;;;;5116565;28;11449;-69
2021/10/02 11:31:38;;;;;;;;;21.75;21.75;44.50;12.10;;;;;;5116548;28;11445;-70
2021/10/02 11:34:22;;;;;;;;;18.50;18.50;44.50;12.00;;;;;;5116810;28;11470;-69
2021/10/02 11:36:56;;;;;;;;;19.00;19.00;44.80;11.70;;;;;;5116644;28;11440;-70
2021/10/02 11:39:29;;;;;;;;;16.25;16.25;43.80;11.70;;;;;;5116709;28;12153;-71
2021/10/02 11:41:59;;;;;;;;;24.75;24.75;44.20;11.80;;;;;;5115288;28;11607;-66
2021/10/02 11:44:35;;;;;;;;;39.00;34.67;44.20;11.60;;;;;;5115516;28;11466;-66
2021/10/02 11:47:26;;;;;;;;;18.50;18.50;44.40;11.40;;;;;;5115519;28;8880;-66
2021/10/02 11:50:06;;;;;;;;;16.50;16.50;44.90;11.60;;;;;;5098862;28;11456;-66
2021/10/02 11:52:34;;;;;;;;;19.75;19.75;47.60;11.60;;;;;;5116223;28;12272;-67
2021/10/02 11:55:31;;;;;;;;;16.25;16.25;47.50;10.20;;;;;;5116623;28;11564;-66
2021/10/02 11:58:11;;;;;;;;;19.75;19.75;47.50;10.00;;;;;;5115102;28;11454;-66
2021/10/02 12:00:55;;;;;;;;;16.00;16.00;46.50;9.70;;;;;;5112310;28;12108;-65
2021/10/02 12:03:34;;;;;;;;;14.75;14.75;47.40;10.50;;;;;;5116252;28;11459;-67
2021/10/02 12:06:04;;;;;;;;;15.25;15.25;47.00;9.50;;;;;;5116040;28;11497;-66
2021/10/02 12:08:31;;;;;;;;;16.50;16.50;46.60;10.10;;;;;;5115737;28;11420;-65
2021/10/02 12:11:09;;;;;;;;;13.75;13.75;46.80;10.10;;;;;;5115861;28;11562;-66
2021/10/02 12:13:42;;;;;;;;;12.50;12.50;47.40;9.90;;;;;;5115188;28;11514;-68
2021/10/02 12:16:14;;;;;;;;;16.50;16.50;47.40;10.00;;;;;;5104030;28;12145;-68
2021/10/02 12:19:10;;;;;;;;;14.75;14.75;47.70;10.00;;;;;;5113196;28;11466;-67
2021/10/02 12:21:45;;;;;;;;;15.00;15.00;48.90;9.90;;;;;;5110506;28;11435;-68
2021/10/02 12:24:15;;;;;;;;;17.00;17.00;48.40;9.40;;;;;;5115650;28;12090;-67
2021/10/02 12:26:45;;;;;;;;;15.00;14.75;49.30;9.50;;;;;;5115903;28;11475;-65
2021/10/02 12:29:14;;;;;;;;;20.75;20.75;49.10;9.20;;;;;;5115535;28;11448;-66
2021/10/02 12:31:46;;;;;;;;;19.25;19.25;50.10;9.10;;;;;;5115509;28;11559;-66
2021/10/02 12:34:13;;;;;;;;;25.50;25.50;51.50;10.10;;;;;;5115469;28;11480;-67
2021/10/02 12:36:46;;;;;;;;;20.00;20.00;51.90;8.50;;;;;;5115068;28;11443;-66
2021/10/02 12:39:11;;;;;;;;;22.50;22.50;51.90;8.70;;;;;;5115205;28;11581;-66
2021/10/02 12:41:42;;;;;;;;;18.50;18.50;50.80;8.60;;;;;;5115609;28;11536;-66
2021/10/02 12:44:16;;;;;;;;;16.25;16.25;51.00;8.50;;;;;;5115672;28;8864;-67
2021/10/02 12:46:42;;;;;;;;;13.00;13.00;49.50;8.70;;;;;;5115216;28;11494;-66
2021/10/02 12:49:09;;;;;;;;;14.25;14.25;50.10;9.00;;;;;;5114056;28;11422;-66
2021/10/02 12:51:35;;;;;;;;;13.00;13.00;50.90;9.00;;;;;;5113445;28;8846;-66
2021/10/02 12:54:01;;;;;;;;;17.00;17.00;51.70;8.70;;;;;;5105367;28;11458;-66
2021/10/02 12:56:27;;;;;;;;;21.25;21.25;51.80;8.40;;;;;;5115353;28;8773;-66
2021/10/02 12:58:52;;;;;;;;;19.75;19.75;52.10;8.10;;;;;;5114277;28;8816;-71
2021/10/02 13:01:19;;;;;;;;;24.33;24.33;51.40;8.20;;;;;;5114732;28;8789;-75
2021/10/02 13:03:44;;;;;;;;;22.25;22.25;51.50;8.00;;;;;;5115242;28;8797;-72
2021/10/02 13:06:10;;;;;;;;;14.50;14.50;51.40;8.50;;;;;;5114931;28;11448;-68
2021/10/02 13:08:36;;;;;;;;;17.00;16.25;49.30;7.90;;;;;;5114661;28;8758;-70
2021/10/02 13:11:03;;;;;;;;;14.00;14.00;46.80;8.50;;;;;;5115148;28;8982;-69
2021/10/02 13:13:29;;;;;;;;;14.00;14.00;46.90;9.10;;;;;;5114924;28;8742;-70
2021/10/02 13:15:58;;;;;;;;;15.00;15.00;48.10;9.00;;;;;;5114681;28;11498;-70
2021/10/02 13:18:27;;;;;;;;;15.25;15.25;49.40;8.90;;;;;;5114610;28;8847;-69
2021/10/02 13:20:58;;;;;;;;;13.50;13.50;49.10;8.70;;;;;;5114760;28;11431;-69
2021/10/02 13:23:36;;;;;;;;;17.00;17.00;49.30;8.60;;;;;;5114688;28;11419;-68
2021/10/02 13:26:12;;;;;;;;;14.00;14.00;49.50;8.80;;;;;;5114822;28;11453;-68
2021/10/02 13:28:45;;;;;;;;;15.50;15.50;50.50;8.80;;;;;;5115081;28;11452;-68
2021/10/02 13:31:17;;;;;;;;;16.00;16.00;50.40;8.40;;;;;;5114674;28;11564;-68
2021/10/02 13:33:47;;;;;;;;;15.00;15.00;49.70;8.40;;;;;;5114726;28;11480;-68
2021/10/02 13:36:26;;;;;;;;;18.25;18.25;49.50;8.70;;;;;;5114662;28;11447;-66
2021/10/02 13:38:53;;;;;;;;;18.25;18.25;50.10;9.00;;;;;;5114602;28;11447;-67
2021/10/02 13:41:19;;;;;;;;;17.25;17.25;49.80;8.60;;;;;;5114974;28;11549;-69
2021/10/02 13:43:57;;;;;;;;;8.75;8.75;49.00;8.60;;;;;;5114683;28;12241;-67
2021/10/02 13:46:34;;;;;;;;;18.75;18.75;46.50;9.50;;;;;;5114473;28;8771;-66